Rb Leah — V7NA8 — position and weather

sailwx.info

Track history (hours):
 
Tides and Currents Weather Stations Pressure Air Temp Water Temp Dewpoint Dewpoint Depression Visibility Wind Speed Wind Dir Waves Ship Positions

Rb Leah

Last reported at 2017-Aug-29 00:12 UTC. Time now 2017-Sep-25 19:13 UTC.
Position N 15°37' W 061°52'.
Warning: this ship's position is 27 days out of date.

Length 229 m; draft 8.4 m.

Type: Cargo ship. MMSI: 538006430.

Date/timePositionNaut miles runAvg speedWind from/ knotsBaromVisibWave heightAir tempDewpointWater temp
2017-Aug-29 00:12N 15°37' W 061°52'414.7
2017-Aug-28 23:54N 15°38' W 061°47'714.8
2017-Aug-28 23:25N 15°40' W 061°40'614.6
2017-Aug-28 22:59N 15°42' W 061°34'1114.7
2017-Aug-28 22:14N 15°46' W 061°23'514.9
2017-Aug-28 21:55N 15°47' W 061°19'714.0
2017-Aug-28 21:27N 15°49' W 061°12'613.9
2017-Aug-28 21:00N 15°50' W 061°06'713.7
2017-Aug-28 20:30N 15°52' W 060°59'713.5
2017-Aug-28 20:00N 15°54' W 060°52'713.8
2017-Aug-28 19:30N 15°56' W 060°45'  
2017-Aug-21 02:40N 27°21' W 016°18'212.2
2017-Aug-21 02:28N 27°22' W 016°15'612.0
2017-Aug-21 01:59N 27°24' W 016°09'811.7
2017-Aug-21 01:21N 27°26' W 016°01'2112.6
2017-Aug-20 23:39N 27°32' W 015°38'214.0
2017-Aug-20 23:30N 27°32' W 015°35'2013.8
2017-Aug-20 22:04N 27°47' W 015°21'113.7
2017-Aug-20 21:59N 27°48' W 015°20'613.5
2017-Aug-20 21:30N 27°54' W 015°16'713.5
2017-Aug-20 21:00N 28°01' W 015°17'612.7
2017-Aug-20 20:30N 28°05' W 015°22'3 6.9
2017-Aug-20 20:00N 28°07' W 015°25'0 0.1
2017-Aug-20 19:30N 28°07' W 015°25'0 0.0
2017-Aug-20 19:00N 28°07' W 015°25'0 0.0
2017-Aug-20 18:30N 28°07' W 015°25'0 0.0
2017-Aug-20 17:45N 28°07' W 015°25'0 0.1
2017-Aug-20 17:30N 28°07' W 015°25'0 0.0
2017-Aug-20 17:00N 28°07' W 015°25'0 0.0
2017-Aug-20 16:30N 28°07' W 015°25'0 0.0
2017-Aug-20 16:00N 28°07' W 015°25'0 0.1
2017-Aug-20 15:30N 28°07' W 015°25'0 0.0
2017-Aug-20 15:00N 28°07' W 015°25'0 0.0
2017-Aug-20 14:30N 28°07' W 015°25'0 0.0
2017-Aug-20 14:00N 28°07' W 015°25'0 0.0
2017-Aug-20 13:30N 28°07' W 015°25'0 0.1
2017-Aug-20 13:00N 28°07' W 015°25'0 0.2
2017-Aug-20 12:30N 28°07' W 015°25'0 0.1
2017-Aug-20 12:00N 28°07' W 015°25'0 0.0
2017-Aug-20 11:30N 28°07' W 015°25'0 0.1
2017-Aug-20 10:51N 28°07' W 015°25'0 0.1
2017-Aug-20 10:24N 28°07' W 015°25'0 0.1
2017-Aug-20 09:54N 28°07' W 015°25'0 0.1
2017-Aug-20 09:24N 28°07' W 015°25'0 0.2
2017-Aug-20 08:51N 28°07' W 015°25'1 1.9
2017-Aug-20 08:24N 28°07' W 015°24'0 0.2
2017-Aug-20 08:00N 28°06' W 015°24'0 0.0
2017-Aug-20 07:30N 28°06' W 015°24'0 0.0
2017-Aug-20 07:00N 28°06' W 015°24'0 0.0
2017-Aug-20 06:30N 28°06' W 015°24'1 1.2
2017-Aug-20 06:00N 28°07' W 015°24'2 4.3
2017-Aug-20 05:30N 28°08' W 015°22'2 4.5
2017-Aug-20 05:00N 28°10' W 015°20'611.6
2017-Aug-20 04:30N 28°14' W 015°16'612.7
2017-Aug-20 04:00N 28°19' W 015°11'713.8
2017-Aug-20 03:30N 28°24' W 015°06'713.7
2017-Aug-20 03:00N 28°30' W 015°01'713.8
2017-Aug-20 02:30N 28°35' W 014°56'714.1
2017-Aug-20 02:00N 28°40' W 014°51'611.0
2017-Aug-20 01:30N 28°44' W 014°47'713.9
2017-Aug-20 01:00N 28°50' W 014°42'713.7
2017-Aug-20 00:30N 28°55' W 014°37'713.8
2017-Aug-20 00:00N 29°00' W 014°32'713.7
2017-Aug-19 23:30N 29°05' W 014°26'713.5
2017-Aug-19 23:00N 29°10' W 014°21'713.4
2017-Aug-19 22:30N 29°16' W 014°16'713.6
2017-Aug-19 21:59N 29°21' W 014°11'713.4
2017-Aug-19 21:29N 29°26' W 014°06'613.4
2017-Aug-19 21:00N 29°31' W 014°01'713.1
2017-Aug-19 20:30N 29°36' W 013°56'713.0
2017-Aug-19 19:58N 29°41' W 013°51'613.1
2017-Aug-19 19:30N 29°45' W 013°46'713.1
2017-Aug-19 18:57N 29°50' W 013°39'613.2
2017-Aug-19 18:29N 29°53' W 013°34'713.5
2017-Aug-19 17:57N 29°58' W 013°27'613.7
2017-Aug-19 17:30N 30°02' W 013°22'714.0
2017-Aug-19 17:00N 30°06' W 013°15'713.9
2017-Aug-19 16:29N 30°11' W 013°09'814.0
2017-Aug-19 15:54N 30°16' W 013°01'1313.9
2017-Aug-19 14:56N 30°24' W 012°49'1513.8
2017-Aug-19 13:53N 30°33' W 012°35'613.6
2017-Aug-19 13:27N 30°36' W 012°30'613.3
2017-Aug-19 13:00N 30°40' W 012°25'814.1
2017-Aug-19 12:24N 30°45' W 012°17'614.3
2017-Aug-19 12:00N 30°49' W 012°12'814.0
2017-Aug-19 11:28N 30°53' W 012°05'713.7
2017-Aug-19 10:56N 30°58' W 011°58'613.8
2017-Aug-19 10:30N 31°01' W 011°53'713.8
2017-Aug-19 09:58N 31°06' W 011°46'1013.6
2017-Aug-19 09:16N 31°12' W 011°37'713.2
2017-Aug-19 08:44N 31°16' W 011°31'313.1
2017-Aug-19 08:30N 31°18' W 011°28'712.8
2017-Aug-19 07:59N 31°22' W 011°22'1714.1
2017-Aug-19 06:47N 31°33' W 011°06'414.7
2017-Aug-19 06:30N 31°35' W 011°02'2014.6
2017-Aug-19 05:07N 31°47' W 010°43'1514.2
2017-Aug-19 04:02N 31°57' W 010°29'114.1
2017-Aug-19 03:58N 31°57' W 010°28'814.1
2017-Aug-19 03:23N 32°02' W 010°21'2614.2
2017-Aug-19 01:33N 32°19' W 009°56'113.9
2017-Aug-19 01:30N 32°19' W 009°56'  
Track history (hours):
 
Tides and Currents Weather Stations Pressure Air Temp Water Temp Dewpoint Dewpoint Depression Visibility Wind Speed Wind Dir Waves Ship Positions

Rb Leah

Last reported at 2017-Aug-29 00:12 UTC. Time now 2017-Sep-25 19:13 UTC.
Position N 15°37' W 061°52'.
Warning: this ship's position is 27 days out of date.

Length 229 m; draft 8.4 m.

Type: Cargo ship. MMSI: 538006430.

Date/timePositionNaut miles runAvg speedWind from/ knotsBaromVisibWave heightAir tempDewpointWater temp
2017-Aug-29 00:12N 15°37' W 061°52'414.7
2017-Aug-28 23:54N 15°38' W 061°47'714.8
2017-Aug-28 23:25N 15°40' W 061°40'614.6
2017-Aug-28 22:59N 15°42' W 061°34'1114.7
2017-Aug-28 22:14N 15°46' W 061°23'514.9
2017-Aug-28 21:55N 15°47' W 061°19'714.0
2017-Aug-28 21:27N 15°49' W 061°12'613.9
2017-Aug-28 21:00N 15°50' W 061°06'713.7
2017-Aug-28 20:30N 15°52' W 060°59'713.5
2017-Aug-28 20:00N 15°54' W 060°52'713.8
2017-Aug-28 19:30N 15°56' W 060°45'  
2017-Aug-21 02:40N 27°21' W 016°18'212.2
2017-Aug-21 02:28N 27°22' W 016°15'612.0
2017-Aug-21 01:59N 27°24' W 016°09'811.7
2017-Aug-21 01:21N 27°26' W 016°01'2112.6
2017-Aug-20 23:39N 27°32' W 015°38'214.0
2017-Aug-20 23:30N 27°32' W 015°35'2013.8
2017-Aug-20 22:04N 27°47' W 015°21'113.7
2017-Aug-20 21:59N 27°48' W 015°20'613.5
2017-Aug-20 21:30N 27°54' W 015°16'713.5
2017-Aug-20 21:00N 28°01' W 015°17'612.7
2017-Aug-20 20:30N 28°05' W 015°22'3 6.9
2017-Aug-20 20:00N 28°07' W 015°25'0 0.1
2017-Aug-20 19:30N 28°07' W 015°25'0 0.0
2017-Aug-20 19:00N 28°07' W 015°25'0 0.0
2017-Aug-20 18:30N 28°07' W 015°25'0 0.0
2017-Aug-20 17:45N 28°07' W 015°25'0 0.1
2017-Aug-20 17:30N 28°07' W 015°25'0 0.0
2017-Aug-20 17:00N 28°07' W 015°25'0 0.0
2017-Aug-20 16:30N 28°07' W 015°25'0 0.0
2017-Aug-20 16:00N 28°07' W 015°25'0 0.1
2017-Aug-20 15:30N 28°07' W 015°25'0 0.0
2017-Aug-20 15:00N 28°07' W 015°25'0 0.0
2017-Aug-20 14:30N 28°07' W 015°25'0 0.0
2017-Aug-20 14:00N 28°07' W 015°25'0 0.0
2017-Aug-20 13:30N 28°07' W 015°25'0 0.1
2017-Aug-20 13:00N 28°07' W 015°25'0 0.2
2017-Aug-20 12:30N 28°07' W 015°25'0 0.1
2017-Aug-20 12:00N 28°07' W 015°25'0 0.0
2017-Aug-20 11:30N 28°07' W 015°25'0 0.1
2017-Aug-20 10:51N 28°07' W 015°25'0 0.1
2017-Aug-20 10:24N 28°07' W 015°25'0 0.1
2017-Aug-20 09:54N 28°07' W 015°25'0 0.1
2017-Aug-20 09:24N 28°07' W 015°25'0 0.2
2017-Aug-20 08:51N 28°07' W 015°25'1 1.9
2017-Aug-20 08:24N 28°07' W 015°24'0 0.2
2017-Aug-20 08:00N 28°06' W 015°24'0 0.0
2017-Aug-20 07:30N 28°06' W 015°24'0 0.0
2017-Aug-20 07:00N 28°06' W 015°24'0 0.0
2017-Aug-20 06:30N 28°06' W 015°24'1 1.2
2017-Aug-20 06:00N 28°07' W 015°24'2 4.3
2017-Aug-20 05:30N 28°08' W 015°22'2 4.5
2017-Aug-20 05:00N 28°10' W 015°20'611.6
2017-Aug-20 04:30N 28°14' W 015°16'612.7
2017-Aug-20 04:00N 28°19' W 015°11'713.8
2017-Aug-20 03:30N 28°24' W 015°06'713.7
2017-Aug-20 03:00N 28°30' W 015°01'713.8
2017-Aug-20 02:30N 28°35' W 014°56'714.1
2017-Aug-20 02:00N 28°40' W 014°51'611.0
2017-Aug-20 01:30N 28°44' W 014°47'713.9
2017-Aug-20 01:00N 28°50' W 014°42'713.7
2017-Aug-20 00:30N 28°55' W 014°37'713.8
2017-Aug-20 00:00N 29°00' W 014°32'713.7
2017-Aug-19 23:30N 29°05' W 014°26'713.5
2017-Aug-19 23:00N 29°10' W 014°21'713.4
2017-Aug-19 22:30N 29°16' W 014°16'713.6
2017-Aug-19 21:59N 29°21' W 014°11'713.4
2017-Aug-19 21:29N 29°26' W 014°06'613.4
2017-Aug-19 21:00N 29°31' W 014°01'713.1
2017-Aug-19 20:30N 29°36' W 013°56'713.0
2017-Aug-19 19:58N 29°41' W 013°51'613.1
2017-Aug-19 19:30N 29°45' W 013°46'713.1
2017-Aug-19 18:57N 29°50' W 013°39'613.2
2017-Aug-19 18:29N 29°53' W 013°34'713.5
2017-Aug-19 17:57N 29°58' W 013°27'613.7
2017-Aug-19 17:30N 30°02' W 013°22'714.0
2017-Aug-19 17:00N 30°06' W 013°15'713.9
2017-Aug-19 16:29N 30°11' W 013°09'814.0
2017-Aug-19 15:54N 30°16' W 013°01'1313.9
2017-Aug-19 14:56N 30°24' W 012°49'1513.8
2017-Aug-19 13:53N 30°33' W 012°35'613.6
2017-Aug-19 13:27N 30°36' W 012°30'613.3
2017-Aug-19 13:00N 30°40' W 012°25'814.1
2017-Aug-19 12:24N 30°45' W 012°17'614.3
2017-Aug-19 12:00N 30°49' W 012°12'814.0
2017-Aug-19 11:28N 30°53' W 012°05'713.7
2017-Aug-19 10:56N 30°58' W 011°58'613.8
2017-Aug-19 10:30N 31°01' W 011°53'713.8
2017-Aug-19 09:58N 31°06' W 011°46'1013.6
2017-Aug-19 09:16N 31°12' W 011°37'713.2
2017-Aug-19 08:44N 31°16' W 011°31'313.1
2017-Aug-19 08:30N 31°18' W 011°28'712.8
2017-Aug-19 07:59N 31°22' W 011°22'1714.1
2017-Aug-19 06:47N 31°33' W 011°06'414.7
2017-Aug-19 06:30N 31°35' W 011°02'2014.6
2017-Aug-19 05:07N 31°47' W 010°43'1514.2
2017-Aug-19 04:02N 31°57' W 010°29'114.1
2017-Aug-19 03:58N 31°57' W 010°28'814.1
2017-Aug-19 03:23N 32°02' W 010°21'2614.2
2017-Aug-19 01:33N 32°19' W 009°56'113.9
2017-Aug-19 01:30N 32°19' W 009°56'  

Dump ship's entire track history